Terminal Aerodrome Forecast
Issued by NWS Sterling, VA

Current Version | Previous Version | Text Only | Print | Product List | Glossary On
Versions: 1 2 3 4 5 6 7 8 9 10 11 12 13 14 15 16 17 18 19 20 21 22 23 24 25 26
000
FTUS41 KLWX 262039 AAA
TAFBWI
TAF AMD
KBWI 262039Z 2621/2724 28014G25KT P6SM BKN050
     FM262300 29010KT P6SM SCT050
     FM270300 29005KT P6SM SCT200
     FM271000 VRB04KT P6SM BKN050 BKN130
     FM271500 06005KT P6SM BKN050 BKN130=

USA.gov is the U.S. government's official web portal to all federal, state and local government web resources and services.